createdAt,value
2023-04-16T00:01:06.259Z,1.37
2023-04-16T00:03:33.712Z,1.33
2023-04-16T00:06:01.184Z,1.28
2023-04-16T00:08:28.046Z,1.25
2023-04-16T00:10:54.858Z,1.23
2023-04-16T00:13:22.760Z,1.15
2023-04-16T00:15:49.935Z,1.14
2023-04-16T00:18:16.925Z,1.10
2023-04-16T00:20:43.754Z,1.07
2023-04-16T00:23:10.845Z,1.06
2023-04-16T00:25:37.624Z,1.06
2023-04-16T00:28:05.584Z,1.06
2023-04-16T00:30:32.474Z,1.04
2023-04-16T00:32:59.940Z,1.01
2023-04-16T00:35:27.208Z,0.98
2023-04-16T00:37:54.160Z,0.93
2023-04-16T00:40:21.406Z,0.90
2023-04-16T00:42:48.259Z,0.85
2023-04-16T00:45:15.086Z,0.84
2023-04-16T00:47:42.003Z,0.81
2023-04-16T00:50:09.146Z,0.80
2023-04-16T00:52:36.193Z,0.76
2023-04-16T00:55:03.593Z,0.75
2023-04-16T00:57:31.027Z,0.75
2023-04-16T00:59:58.595Z,0.74
2023-04-16T01:02:25.658Z,0.73
2023-04-16T01:04:52.707Z,0.71
2023-04-16T01:07:19.618Z,0.67
2023-04-16T01:09:46.487Z,0.62
2023-04-16T01:12:13.904Z,0.59
2023-04-16T01:14:40.981Z,0.56
2023-04-16T01:17:08.149Z,0.54
2023-04-16T01:19:38.552Z,0.50
2023-04-16T01:22:05.927Z,0.49
2023-04-16T01:24:32.981Z,0.50
2023-04-16T01:26:59.905Z,0.48
2023-04-16T01:29:27.364Z,0.49
2023-04-16T01:31:54.606Z,0.48
2023-04-16T01:34:21.499Z,0.48
2023-04-16T01:36:48.247Z,0.47
2023-04-16T01:39:16.653Z,0.44
2023-04-16T01:41:43.800Z,0.41
2023-04-16T01:44:10.816Z,0.40
2023-04-16T01:46:38.364Z,0.38
2023-04-16T01:49:07.296Z,0.36
2023-04-16T01:51:34.379Z,0.33
2023-04-16T01:54:01.466Z,0.27
2023-04-16T01:56:28.326Z,0.25
2023-04-16T01:58:55.173Z,0.26
2023-04-16T02:01:22.287Z,0.27
2023-04-16T02:03:49.567Z,0.23
2023-04-16T02:06:16.595Z,0.26
2023-04-16T02:08:43.512Z,0.25
2023-04-16T02:11:10.711Z,0.22
2023-04-16T02:13:37.544Z,0.25
2023-04-16T02:16:04.711Z,0.24
2023-04-16T02:18:51.517Z,0.22
2023-04-16T02:21:18.172Z,0.21
2023-04-16T02:23:47.955Z,0.20
2023-04-16T02:26:14.843Z,0.18
2023-04-16T02:28:41.851Z,0.17
2023-04-16T02:31:08.698Z,0.13
2023-04-16T02:33:36.085Z,0.14
2023-04-16T02:36:02.916Z,0.14
2023-04-16T02:38:29.700Z,0.15
2023-04-16T02:40:56.546Z,0.14
2023-04-16T02:43:23.410Z,0.16
2023-04-16T02:45:50.282Z,0.17
2023-04-16T02:48:17.188Z,0.18
2023-04-16T02:50:44.090Z,0.19
2023-04-16T02:53:10.881Z,0.21
2023-04-16T02:55:37.734Z,0.23
2023-04-16T02:58:04.678Z,0.24
2023-04-16T03:00:31.837Z,0.24
2023-04-16T03:02:58.722Z,0.24
2023-04-16T03:05:25.967Z,0.27
2023-04-16T03:07:56.777Z,0.28
2023-04-16T03:10:24.281Z,0.30
2023-04-16T03:12:51.208Z,0.34
2023-04-16T03:15:18.237Z,0.37
2023-04-16T03:17:45.183Z,0.41
2023-04-16T03:20:12.480Z,0.44
2023-04-16T03:22:39.703Z,0.42
2023-04-16T03:25:07.965Z,0.48
2023-04-16T03:27:35.571Z,0.50
2023-04-16T03:30:03.185Z,0.53
2023-04-16T03:32:31.630Z,0.58
2023-04-16T03:34:58.624Z,0.60
2023-04-16T03:37:25.538Z,0.62
2023-04-16T03:39:52.674Z,0.63
2023-04-16T03:42:19.498Z,0.66
2023-04-16T03:44:46.212Z,0.70
2023-04-16T03:47:12.993Z,0.72
2023-04-16T03:49:39.798Z,0.77
2023-04-16T03:52:06.657Z,0.78
2023-04-16T03:54:33.408Z,0.87
2023-04-16T03:57:00.190Z,0.89
2023-04-16T03:59:27.012Z,0.95
2023-04-16T04:01:53.907Z,0.98
2023-04-16T04:04:20.772Z,1.00
2023-04-16T04:06:47.624Z,1.02
2023-04-16T04:09:16.588Z,1.06
2023-04-16T04:11:43.530Z,1.09
2023-04-16T04:14:10.354Z,1.15
2023-04-16T04:16:37.276Z,1.19
2023-04-16T04:19:04.075Z,1.23
2023-04-16T04:21:31.768Z,1.25
2023-04-16T04:23:58.683Z,1.30
2023-04-16T04:26:25.642Z,1.35
2023-04-16T04:28:52.647Z,1.40
2023-04-16T04:31:19.484Z,1.46
2023-04-16T04:33:46.501Z,1.52
2023-04-16T04:36:13.266Z,1.58
2023-04-16T04:38:40.070Z,1.65
2023-04-16T04:41:07.119Z,1.71
2023-04-16T04:43:34.154Z,1.77
2023-04-16T04:46:01.044Z,1.90
2023-04-16T04:48:27.827Z,2.00
2023-04-16T04:50:54.767Z,2.13
2023-04-16T04:53:21.762Z,2.26
2023-04-16T04:55:52.276Z,2.40
2023-04-16T04:58:21.054Z,2.51
2023-04-16T05:00:47.860Z,2.66
2023-04-16T05:03:21.505Z,2.83
2023-04-16T05:05:48.471Z,2.98
2023-04-16T05:08:15.371Z,3.14
2023-04-16T05:10:42.182Z,3.33
2023-04-16T05:13:09.007Z,3.53
2023-04-16T05:15:35.964Z,3.76
2023-04-16T05:18:02.877Z,3.95
2023-04-16T05:20:29.764Z,4.12
2023-04-16T05:22:56.923Z,4.23
2023-04-16T05:25:23.934Z,4.39
2023-04-16T05:27:50.737Z,4.51
2023-04-16T05:30:17.647Z,4.62
2023-04-16T05:32:44.454Z,4.73
2023-04-16T05:35:11.287Z,4.86
2023-04-16T05:37:38.162Z,4.96
2023-04-16T05:40:05.345Z,5.06
2023-04-16T05:42:32.293Z,5.22
2023-04-16T05:44:59.126Z,5.33
2023-04-16T05:47:25.953Z,5.44
2023-04-16T05:49:52.833Z,5.59
2023-04-16T05:52:19.631Z,5.77
2023-04-16T05:54:46.423Z,5.88
2023-04-16T05:57:14.272Z,5.93
2023-04-16T05:59:41.400Z,6.02
2023-04-16T06:02:08.292Z,6.13
2023-04-16T06:04:35.892Z,6.18
2023-04-16T06:07:02.750Z,6.24
2023-04-16T06:09:30.641Z,6.31
2023-04-16T06:11:58.096Z,6.39
2023-04-16T06:14:24.928Z,6.48
2023-04-16T06:16:51.786Z,6.53
2023-04-16T06:19:18.798Z,6.58
2023-04-16T06:21:45.666Z,6.67
2023-04-16T06:24:13.364Z,6.79
2023-04-16T06:26:40.520Z,6.93
2023-04-16T06:29:07.724Z,7.02
2023-04-16T06:31:34.855Z,7.07
2023-04-16T06:34:01.893Z,7.15
2023-04-16T06:36:29.195Z,7.31
2023-04-16T06:38:56.063Z,7.38
2023-04-16T06:41:25.648Z,7.48
2023-04-16T06:43:52.587Z,7.56
2023-04-16T06:46:19.394Z,7.59
2023-04-16T06:48:46.297Z,7.70
2023-04-16T06:51:13.482Z,7.81
2023-04-16T06:53:40.397Z,7.98
2023-04-16T06:56:07.631Z,8.15
2023-04-16T06:58:34.509Z,8.32
2023-04-16T07:01:02.786Z,8.45
2023-04-16T07:03:30.043Z,8.59
2023-04-16T07:05:57.179Z,8.80
2023-04-16T07:08:24.801Z,8.98
2023-04-16T07:10:53.866Z,9.18
2023-04-16T07:13:21.758Z,9.36
2023-04-16T07:15:48.570Z,9.50
2023-04-16T07:18:15.914Z,9.60
2023-04-16T07:20:42.794Z,9.68
2023-04-16T07:23:09.768Z,9.70
2023-04-16T07:25:36.673Z,9.60
2023-04-16T07:28:04.132Z,9.58
2023-04-16T07:30:34.324Z,9.70
2023-04-16T07:33:02.710Z,9.77
2023-04-16T07:35:31.188Z,9.80
2023-04-16T07:37:58.260Z,9.86
2023-04-16T07:40:25.251Z,9.93
2023-04-16T07:42:52.755Z,9.95
2023-04-16T07:45:19.640Z,10.05
2023-04-16T07:47:46.653Z,10.15
2023-04-16T07:50:13.768Z,10.22
2023-04-16T07:52:42.463Z,10.30
2023-04-16T07:55:09.571Z,10.21
2023-04-16T07:57:36.943Z,10.22
2023-04-16T08:00:05.341Z,10.21
2023-04-16T08:02:33.099Z,10.10
2023-04-16T08:05:00.316Z,10.11
2023-04-16T08:07:27.410Z,10.15
2023-04-16T08:09:54.686Z,10.19
2023-04-16T08:12:21.756Z,10.42
2023-04-16T08:14:49.037Z,10.55
2023-04-16T08:17:16.248Z,10.57
2023-04-16T08:19:45.110Z,10.65
2023-04-16T08:22:12.261Z,10.63
2023-04-16T08:24:40.369Z,10.74
2023-04-16T08:27:17.729Z,10.82
2023-04-16T08:29:46.474Z,10.77
2023-04-16T08:32:13.599Z,10.80
2023-04-16T08:34:40.564Z,10.92
2023-04-16T08:37:07.555Z,11.04
2023-04-16T08:39:35.369Z,11.08
2023-04-16T08:42:05.687Z,11.03
2023-04-16T08:44:37.653Z,11.11
2023-04-16T08:47:08.898Z,11.37
2023-04-16T08:49:43.628Z,11.63
2023-04-16T08:52:19.222Z,11.87
2023-04-16T08:55:01.059Z,12.07
2023-04-16T08:57:38.700Z,12.17
2023-04-16T09:00:08.227Z,12.19
2023-04-16T09:02:36.250Z,12.23
2023-04-16T09:05:06.332Z,12.20
2023-04-16T09:07:34.436Z,12.15
2023-04-16T09:10:01.854Z,12.18
2023-04-16T09:12:31.429Z,12.23
2023-04-16T09:15:02.904Z,12.35
2023-04-16T09:17:34.695Z,12.54
2023-04-16T09:20:01.853Z,12.80
2023-04-16T09:22:30.647Z,12.97
2023-04-16T09:24:57.420Z,13.09
2023-04-16T09:27:26.177Z,13.14
2023-04-16T09:29:53.151Z,13.12
2023-04-16T09:32:27.508Z,13.26
2023-04-16T09:34:59.029Z,13.33
2023-04-16T09:37:27.405Z,13.44
2023-04-16T09:40:01.873Z,13.54
2023-04-16T09:42:34.336Z,13.61
2023-04-16T09:45:04.975Z,13.64
2023-04-16T09:47:45.063Z,13.68
2023-04-16T09:50:18.156Z,13.75
2023-04-16T09:52:51.182Z,13.81
2023-04-16T09:55:24.077Z,13.80
2023-04-16T09:57:59.616Z,13.77
2023-04-16T10:00:26.706Z,13.77
2023-04-16T10:03:07.396Z,13.77
2023-04-16T10:05:35.006Z,13.82
2023-04-16T10:08:05.037Z,13.91
2023-04-16T10:10:33.776Z,14.03
2023-04-16T10:13:00.953Z,14.05
2023-04-16T10:15:28.283Z,14.07
2023-04-16T10:17:57.416Z,14.08
2023-04-16T10:20:24.748Z,14.09
2023-04-16T10:22:53.038Z,14.04
2023-04-16T10:25:20.277Z,13.97
2023-04-16T10:27:48.257Z,13.93
2023-04-16T10:30:16.925Z,13.89
2023-04-16T10:32:44.679Z,13.67
2023-04-16T10:35:16.572Z,13.76
2023-04-16T10:37:45.417Z,13.77
2023-04-16T10:40:25.639Z,13.68
2023-04-16T10:42:59.463Z,13.74
2023-04-16T10:45:37.646Z,13.68
2023-04-16T10:48:06.793Z,13.52
2023-04-16T10:50:37.364Z,13.33
2023-04-16T10:53:26.048Z,13.22
2023-04-16T10:56:05.655Z,13.12
2023-04-16T10:58:36.557Z,13.08
2023-04-16T11:01:17.144Z,13.13
2023-04-16T11:03:47.202Z,13.21
2023-04-16T11:06:25.281Z,13.32
2023-04-16T11:08:54.955Z,13.78
2023-04-16T11:11:23.069Z,14.10
2023-04-16T11:13:50.105Z,14.31
2023-04-16T11:16:17.456Z,14.26
2023-04-16T11:18:51.424Z,14.28
2023-04-16T11:21:20.309Z,14.49
2023-04-16T11:23:52.972Z,14.45
2023-04-16T11:26:30.846Z,14.24
2023-04-16T11:28:57.903Z,13.99
2023-04-16T11:31:25.015Z,13.81
2023-04-16T11:33:52.067Z,13.72
2023-04-16T11:36:18.994Z,13.76
2023-04-16T11:38:47.796Z,13.71
2023-04-16T11:41:19.528Z,13.51
2023-04-16T11:43:46.456Z,13.58
2023-04-16T11:46:26.438Z,13.63
2023-04-16T11:48:58.385Z,14.36
2023-04-16T11:51:25.374Z,14.34
2023-04-16T11:53:54.006Z,14.22
2023-04-16T11:56:28.848Z,14.16
2023-04-16T11:59:19.854Z,14.18
2023-04-16T12:01:51.918Z,14.34
2023-04-16T12:04:21.340Z,14.83
2023-04-16T12:07:13.166Z,15.25
2023-04-16T12:09:42.062Z,15.40
2023-04-16T12:12:31.679Z,15.17
2023-04-16T12:15:00.342Z,15.39
2023-04-16T12:17:27.404Z,15.83
2023-04-16T12:20:01.916Z,16.24
2023-04-16T12:22:32.901Z,16.88
2023-04-16T12:25:08.047Z,17.57
2023-04-16T12:27:47.108Z,17.98
2023-04-16T12:30:22.549Z,17.91
2023-04-16T12:32:52.032Z,19.01
2023-04-16T12:35:37.386Z,19.45
2023-04-16T12:38:04.314Z,18.99
2023-04-16T12:40:31.232Z,17.60
2023-04-16T12:42:58.015Z,16.48
2023-04-16T12:45:25.181Z,15.83
2023-04-16T12:47:52.283Z,15.23
2023-04-16T12:50:19.399Z,14.76
2023-04-16T12:52:46.693Z,14.47
2023-04-16T12:55:14.433Z,14.30
2023-04-16T12:57:41.716Z,14.18
2023-04-16T13:00:12.895Z,14.07
2023-04-16T13:02:40.294Z,14.11
2023-04-16T13:05:08.359Z,14.33
2023-04-16T13:07:35.468Z,14.39
2023-04-16T13:10:02.654Z,14.31
2023-04-16T13:12:31.041Z,14.19
2023-04-16T13:14:57.867Z,14.07
2023-04-16T13:17:24.906Z,13.93
2023-04-16T13:19:51.818Z,14.13
2023-04-16T13:22:18.733Z,14.81
2023-04-16T13:24:46.338Z,15.47
2023-04-16T13:27:15.295Z,15.41
2023-04-16T13:29:42.141Z,15.17
2023-04-16T13:32:09.056Z,15.33
2023-04-16T13:34:36.177Z,15.56
2023-04-16T13:37:02.928Z,15.34
2023-04-16T13:39:29.873Z,15.59
2023-04-16T13:41:56.788Z,15.67
2023-04-16T13:44:23.634Z,15.38
2023-04-16T13:46:50.778Z,14.94
2023-04-16T13:49:17.668Z,14.49
2023-04-16T13:51:44.948Z,14.11
2023-04-16T13:54:12.022Z,13.89
2023-04-16T13:56:39.216Z,13.74
2023-04-16T13:59:06.159Z,13.60
2023-04-16T14:01:33.100Z,13.52
2023-04-16T14:04:06.275Z,13.45
2023-04-16T14:06:34.698Z,13.40
2023-04-16T14:09:02.012Z,13.43
2023-04-16T14:11:29.209Z,13.42
2023-04-16T14:13:56.204Z,13.55
2023-04-16T14:16:23.377Z,13.98
2023-04-16T14:18:52.157Z,14.48
2023-04-16T14:21:19.327Z,14.80
2023-04-16T14:23:46.058Z,15.04
2023-04-16T14:26:13.006Z,14.88
2023-04-16T14:28:41.260Z,14.50
2023-04-16T14:31:08.333Z,14.10
2023-04-16T14:33:35.193Z,13.77
2023-04-16T14:36:03.310Z,13.50
2023-04-16T14:38:31.337Z,13.25
2023-04-16T14:40:58.304Z,13.03
2023-04-16T14:43:25.245Z,12.97
2023-04-16T14:45:52.891Z,12.87
2023-04-16T14:48:19.830Z,12.81
2023-04-16T14:50:47.970Z,12.73
2023-04-16T14:53:14.837Z,12.64
2023-04-16T14:55:41.671Z,12.56
2023-04-16T14:58:08.820Z,12.44
2023-04-16T15:00:35.792Z,12.35
2023-04-16T15:03:02.812Z,12.27
2023-04-16T15:05:30.610Z,12.20
2023-04-16T15:07:57.767Z,12.16
2023-04-16T15:10:24.620Z,12.11
2023-04-16T15:12:51.403Z,12.09
2023-04-16T15:15:18.510Z,12.02
2023-04-16T15:17:45.900Z,11.96
2023-04-16T15:20:13.194Z,11.89
2023-04-16T15:22:40.277Z,11.81
2023-04-16T15:25:07.715Z,11.66
2023-04-16T15:27:34.600Z,11.60
2023-04-16T15:30:01.517Z,11.49
2023-04-16T15:32:31.294Z,11.42
2023-04-16T15:34:58.356Z,11.35
2023-04-16T15:37:25.532Z,11.26
2023-04-16T15:39:52.372Z,11.18
2023-04-16T15:42:19.216Z,11.09
2023-04-16T15:44:46.282Z,11.01
2023-04-16T15:47:13.138Z,10.91
2023-04-16T15:49:40.422Z,10.80
2023-04-16T15:52:07.560Z,10.76
2023-04-16T15:54:34.456Z,10.64
2023-04-16T15:57:01.739Z,10.56
2023-04-16T15:59:28.631Z,10.46
2023-04-16T16:01:55.972Z,10.39
2023-04-16T16:04:23.406Z,10.31
2023-04-16T16:06:50.575Z,10.23
2023-04-16T16:09:17.815Z,10.16
2023-04-16T16:11:44.709Z,10.08
2023-04-16T16:14:11.841Z,10.00
2023-04-16T16:16:40.116Z,9.91
2023-04-16T16:19:07.001Z,9.82
2023-04-16T16:21:33.966Z,9.73
2023-04-16T16:24:00.994Z,9.63
2023-04-16T16:26:28.192Z,9.55
2023-04-16T16:28:54.986Z,9.45
2023-04-16T16:31:21.938Z,9.36
2023-04-16T16:33:48.758Z,9.29
2023-04-16T16:36:15.556Z,9.22
2023-04-16T16:38:42.601Z,9.13
2023-04-16T16:41:09.595Z,9.05
2023-04-16T16:43:39.418Z,8.96
2023-04-16T16:46:07.596Z,8.88
2023-04-16T16:48:34.671Z,8.79
2023-04-16T16:51:01.581Z,8.71
2023-04-16T16:53:28.546Z,8.62
2023-04-16T16:55:55.618Z,8.56
2023-04-16T16:58:22.659Z,8.50
2023-04-16T17:00:49.447Z,8.43
2023-04-16T17:03:17.307Z,8.36
2023-04-16T17:05:44.278Z,8.30
2023-04-16T17:08:11.318Z,8.23
2023-04-16T17:10:38.131Z,8.17
2023-04-16T17:13:04.897Z,8.11
2023-04-16T17:15:31.786Z,8.04
2023-04-16T17:17:58.717Z,8.00
2023-04-16T17:20:26.305Z,7.92
2023-04-16T17:22:53.311Z,7.87
2023-04-16T17:25:20.171Z,7.82
2023-04-16T17:27:47.673Z,7.79
2023-04-16T17:30:14.819Z,7.74
2023-04-16T17:32:41.716Z,7.66
2023-04-16T17:35:10.297Z,7.64
2023-04-16T17:37:37.106Z,7.58
2023-04-16T17:40:07.630Z,7.56
2023-04-16T17:42:37.697Z,7.49
2023-04-16T17:45:05.020Z,7.45
2023-04-16T17:47:36.375Z,7.40
2023-04-16T17:50:04.494Z,7.36
2023-04-16T17:52:31.395Z,7.28
2023-04-16T17:55:01.789Z,7.25
2023-04-16T17:57:30.913Z,7.22
2023-04-16T17:59:57.933Z,7.19
2023-04-16T18:02:25.295Z,7.12
2023-04-16T18:04:52.429Z,7.10
2023-04-16T18:07:19.435Z,7.07
2023-04-16T18:09:46.448Z,7.01
2023-04-16T18:12:13.286Z,6.98
2023-04-16T18:14:40.775Z,6.98
2023-04-16T18:17:07.726Z,6.94
2023-04-16T18:19:35.829Z,6.90
2023-04-16T18:22:02.908Z,6.84
2023-04-16T18:24:29.672Z,6.79
2023-04-16T18:26:57.066Z,6.79
2023-04-16T18:29:25.237Z,6.73
2023-04-16T18:31:52.481Z,6.71
2023-04-16T18:34:19.579Z,6.69
2023-04-16T18:36:46.587Z,6.67
2023-04-16T18:39:13.403Z,6.61
2023-04-16T18:41:41.658Z,6.57
2023-04-16T18:44:12.056Z,6.51
2023-04-16T18:46:38.871Z,6.48
2023-04-16T18:49:05.698Z,6.45
2023-04-16T18:51:33.006Z,6.42
2023-04-16T18:53:59.864Z,6.39
2023-04-16T18:56:29.494Z,6.38
2023-04-16T18:58:56.335Z,6.34
2023-04-16T19:01:23.875Z,6.30
2023-04-16T19:03:51.083Z,6.30
2023-04-16T19:06:18.270Z,6.29
2023-04-16T19:08:45.110Z,6.29
2023-04-16T19:11:11.907Z,6.30
2023-04-16T19:13:39.444Z,6.29
2023-04-16T19:16:11.397Z,6.28
2023-04-16T19:18:39.526Z,6.32
2023-04-16T19:21:07.284Z,6.32
2023-04-16T19:23:34.157Z,6.32
2023-04-16T19:26:01.807Z,6.31
2023-04-16T19:28:29.050Z,6.34
2023-04-16T19:30:56.263Z,6.32
2023-04-16T19:33:23.298Z,6.35
2023-04-16T19:35:50.200Z,6.35
2023-04-16T19:38:17.211Z,6.37
2023-04-16T19:40:45.958Z,6.37
2023-04-16T19:43:12.867Z,6.37
2023-04-16T19:45:47.201Z,6.36
2023-04-16T19:48:14.794Z,6.38
2023-04-16T19:50:42.577Z,6.38
2023-04-16T19:53:09.842Z,6.42
2023-04-16T19:55:36.917Z,6.43
2023-04-16T19:58:06.900Z,6.46
2023-04-16T20:00:36.384Z,6.47
2023-04-16T20:03:03.869Z,6.48
2023-04-16T20:05:33.705Z,6.49
2023-04-16T20:08:00.629Z,6.47
2023-04-16T20:10:27.930Z,6.50
2023-04-16T20:12:54.920Z,6.51
2023-04-16T20:15:21.779Z,6.51
2023-04-16T20:17:48.726Z,6.54
2023-04-16T20:20:16.525Z,6.54
2023-04-16T20:22:43.817Z,6.53
2023-04-16T20:25:11.557Z,6.54
2023-04-16T20:27:38.510Z,6.52
2023-04-16T20:30:06.435Z,6.52
2023-04-16T20:32:33.620Z,6.52
2023-04-16T20:35:02.082Z,6.53
2023-04-16T20:37:29.339Z,6.52
2023-04-16T20:39:56.425Z,6.51
2023-04-16T20:42:23.644Z,6.53
2023-04-16T20:44:50.682Z,6.54
2023-04-16T20:47:17.875Z,6.56
2023-04-16T20:49:47.900Z,6.55
2023-04-16T20:52:15.647Z,6.55
2023-04-16T20:54:42.613Z,6.56
2023-04-16T20:57:09.399Z,6.55
2023-04-16T20:59:39.220Z,6.54
2023-04-16T21:02:06.350Z,6.52
2023-04-16T21:04:33.516Z,6.53
2023-04-16T21:07:03.269Z,6.53
2023-04-16T21:09:31.016Z,6.53
2023-04-16T21:11:57.945Z,6.52
2023-04-16T21:14:25.189Z,6.52
2023-04-16T21:16:52.033Z,6.50
2023-04-16T21:19:18.882Z,6.49
2023-04-16T21:21:46.066Z,6.49
2023-04-16T21:24:12.972Z,6.48
2023-04-16T21:26:39.750Z,6.45
2023-04-16T21:29:06.686Z,6.42
2023-04-16T21:31:34.806Z,6.39
2023-04-16T21:34:01.677Z,6.35
2023-04-16T21:36:29.301Z,6.33
2023-04-16T21:38:56.200Z,6.32
2023-04-16T21:41:22.992Z,6.30
2023-04-16T21:43:49.749Z,6.29
2023-04-16T21:46:16.690Z,6.28
2023-04-16T21:48:43.654Z,6.24
2023-04-16T21:51:10.643Z,6.21
2023-04-16T21:53:38.967Z,6.20
2023-04-16T21:56:06.685Z,6.17
2023-04-16T21:58:33.476Z,6.16
2023-04-16T22:01:00.462Z,6.12
2023-04-16T22:03:28.302Z,6.11
2023-04-16T22:06:01.061Z,6.08
2023-04-16T22:08:31.409Z,6.07
2023-04-16T22:11:02.599Z,6.05
2023-04-16T22:13:32.557Z,6.03
2023-04-16T22:16:02.863Z,5.99
2023-04-16T22:18:33.236Z,6.01
2023-04-16T22:21:00.906Z,6.00
2023-04-16T22:23:27.724Z,6.00
2023-04-16T22:25:56.901Z,6.00
2023-04-16T22:28:23.931Z,6.00
2023-04-16T22:30:51.301Z,5.99
2023-04-16T22:33:18.269Z,5.97
2023-04-16T22:35:45.825Z,5.99
2023-04-16T22:38:12.636Z,5.99
2023-04-16T22:40:39.495Z,5.99
2023-04-16T22:43:06.312Z,5.97
2023-04-16T22:45:33.373Z,5.96
2023-04-16T22:48:00.307Z,5.97
2023-04-16T22:50:28.644Z,5.96
2023-04-16T22:52:55.467Z,5.94
2023-04-16T22:55:22.394Z,5.92
2023-04-16T22:57:49.204Z,5.91
2023-04-16T23:00:18.045Z,5.90
2023-04-16T23:02:45.698Z,5.84
2023-04-16T23:05:12.633Z,5.86
2023-04-16T23:07:40.080Z,5.86
2023-04-16T23:10:08.718Z,5.86
2023-04-16T23:12:37.531Z,5.84
2023-04-16T23:15:06.838Z,5.82
2023-04-16T23:17:35.326Z,5.82
2023-04-16T23:20:02.961Z,5.80
2023-04-16T23:22:30.171Z,5.80
2023-04-16T23:24:57.117Z,5.82
2023-04-16T23:27:23.898Z,5.81
2023-04-16T23:29:50.776Z,5.81
2023-04-16T23:32:17.704Z,5.81
2023-04-16T23:34:44.634Z,5.82
2023-04-16T23:37:11.569Z,5.84
2023-04-16T23:39:38.367Z,5.84
2023-04-16T23:42:05.183Z,5.84
2023-04-16T23:44:32.109Z,5.81
2023-04-16T23:46:59.059Z,5.79
2023-04-16T23:49:26.001Z,5.79
2023-04-16T23:51:53.167Z,5.78
2023-04-16T23:54:20.073Z,5.77
2023-04-16T23:56:47.005Z,5.78
2023-04-16T23:59:14.336Z,5.77
